Aérodrome :
LOGIN :

S'inscrire | Disclaimer

   EN    FR    IT 

 










Légende :    VFR   VFR Marginal   IFR   IFR Intensif   IFR Très Intensif
Visi : 
Plafond : 
>= 8 km
>= 3000ft
5 à 8 km
1000 à 3000 ft
1500m à 5 km
500 à 1000 ft
800 à 1500m
200 à 500 ft
< 800m
< 200 ft
Symboles :   Orages  Brouillard  Fortes neiges  Fortes précipitations  Vent > 20 kt
SIGMETs :   Divers  Orages  Givrage  Turbulence  Onde Orograph.  Cendres Volcan.







- Altitude de l'aérodrome : 84 ft
- Voir les cartes d'approche


LFBC - Cazaux

METARs EXPIRÉS :
  • 241430Z AUTO 27008KT 220V340 9999 BKN034 BKN049 24/15 Q1021 NOSIG
  • 241400Z AUTO 29007KT 240V320 9999 SCT037 BKN043 BKN050 24/15 Q1021 NOSIG
  • 241330Z AUTO 29007KT 240V340 9999 FEW027 SCT035 23/15 Q1021 NOSIG
  • 241300Z AUTO 22006KT 190V260 9999 SCT028 SCT033 BKN040 23/16 Q1021 TEMPO 33010KT
  • 241230Z AUTO 21005KT 170V250 9999 FEW031 BKN038 BKN048 23/16 Q1022
  • 241200Z AUTO 20005KT 150V250 9999 OVC045 21/16 Q1022

Prévision TAF périmée.
Pas de NOTAMs connus pour ce terrain.
1 SIGMET publié pour la FIR Bordeaux (LFBB) :
 
Orages noyés dans la masse
LFBB SIGMET 2 VALID 251800/252000 LFPW
LFBB BORDEAUX FIR/UIR EMBD TS OBS WI N4245 E00230 - N4215 E00230 - N4245 W00015 - N4315 E00030 TOP FL390 STNR NC=



MET'MAP, la Météo Aéronautique d'un coup d'oeil ! - Copyright ORBIFLY Décembre 2007 - Disclaimer

ORBIFLY MET'MAP TEAM :

Programmation & Développement : Alexandra Zaïnal
Conception & Développement : Baudouin d'Aumeries
Co-Programmation & Développement : Marc-Olivier Méhu
Soutien technique & logistique : Manuel Goepfert

Contact : metmap@orbifly.com




SOURCES & CREDITS :

   NOAA